Plevna, Montana
Current Conditions -  °F | °C
As of 1:51 PM on Friday 28 Nov 2014 (Local Time) from KBHK Reporting Station
Few Clouds Few Clouds  
Wind Chill: 10°   Ceiling: Unl
Heat Index: 10°   Visibility: 10mi
Dew Point:   Wind: 12mph
Humidity: 50%   Direction: 220°SW
Pressure: 29.5"   Gusts: NA
Location:  46.42°N, 104.52°W
Report Text: KBHK 282051Z AUTO 22010KT 10SM FEW095 10/00 A2950 RMK AO2 SLP989 T01000000 56029
Loading
Personal Weather Stations






























Interactive Weather Map New forecast layout! Learn more

10-Day Weather Forecast

Advertisements
Track Severe Weather on mobile